createdAt,value
2022-08-31T00:00:29.724Z,20.88
2022-08-31T00:03:15.303Z,20.99
2022-08-31T00:05:42.228Z,20.93
2022-08-31T00:08:09.190Z,20.92
2022-08-31T00:10:36.968Z,20.87
2022-08-31T00:13:09.707Z,20.93
2022-08-31T00:15:36.455Z,20.87
2022-08-31T00:18:04.892Z,20.74
2022-08-31T00:20:33.969Z,20.36
2022-08-31T00:23:06.061Z,19.92
2022-08-31T00:25:34.410Z,20.29
2022-08-31T00:28:01.791Z,19.80
2022-08-31T00:30:28.645Z,19.51
2022-08-31T00:32:58.191Z,19.80
2022-08-31T00:35:29.574Z,19.51
2022-08-31T00:37:57.012Z,19.84
2022-08-31T00:40:24.645Z,19.51
2022-08-31T00:42:52.090Z,19.55
2022-08-31T00:45:19.259Z,19.44
2022-08-31T00:47:46.092Z,19.35
2022-08-31T00:50:16.042Z,19.62
2022-08-31T00:52:47.366Z,19.56
2022-08-31T00:55:29.938Z,19.56
2022-08-31T00:58:00.151Z,19.55
2022-08-31T01:00:28.549Z,19.65
2022-08-31T01:02:57.311Z,19.62
2022-08-31T01:05:24.918Z,19.55
2022-08-31T01:07:52.839Z,19.25
2022-08-31T01:10:22.440Z,19.37
2022-08-31T01:12:52.636Z,19.47
2022-08-31T01:15:20.087Z,19.48
2022-08-31T01:17:49.537Z,19.35
2022-08-31T01:20:16.280Z,19.45
2022-08-31T01:22:52.182Z,19.43
2022-08-31T01:25:20.150Z,19.43
2022-08-31T01:27:47.475Z,19.47
2022-08-31T01:30:24.012Z,19.35
2022-08-31T01:32:50.882Z,19.45
2022-08-31T01:35:17.912Z,19.39
2022-08-31T01:37:45.101Z,19.36
2022-08-31T01:40:12.770Z,19.70
2022-08-31T01:42:39.492Z,19.25
2022-08-31T01:45:08.101Z,18.76
2022-08-31T01:47:35.120Z,19.08
2022-08-31T01:50:01.994Z,18.86
2022-08-31T01:52:28.791Z,18.77
2022-08-31T01:54:56.666Z,18.80
2022-08-31T01:57:24.464Z,18.73
2022-08-31T02:00:04.688Z,18.68
2022-08-31T02:02:32.080Z,18.36
2022-08-31T02:04:59.259Z,18.66
2022-08-31T02:07:26.646Z,18.69
2022-08-31T02:09:54.931Z,18.61
2022-08-31T02:12:21.800Z,18.76
2022-08-31T02:14:48.756Z,18.84
2022-08-31T02:17:15.701Z,18.67
2022-08-31T02:19:42.450Z,18.65
2022-08-31T02:22:09.298Z,18.81
2022-08-31T02:24:36.174Z,18.89
2022-08-31T02:27:03.031Z,18.54
2022-08-31T02:29:29.710Z,18.63
2022-08-31T02:31:58.621Z,18.39
2022-08-31T02:34:25.509Z,18.68
2022-08-31T02:36:52.225Z,18.28
2022-08-31T02:39:18.968Z,18.30
2022-08-31T02:41:45.985Z,18.54
2022-08-31T02:44:12.735Z,18.48
2022-08-31T02:46:39.532Z,18.53
2022-08-31T02:49:06.397Z,18.80
2022-08-31T02:51:33.100Z,18.62
2022-08-31T02:53:59.950Z,18.77
2022-08-31T02:56:26.729Z,18.82
2022-08-31T02:58:55.097Z,18.96
2022-08-31T03:01:26.660Z,18.77
2022-08-31T03:03:53.619Z,18.87
2022-08-31T03:06:21.207Z,18.92
2022-08-31T03:08:48.127Z,18.70
2022-08-31T03:11:16.223Z,18.82
2022-08-31T03:13:43.136Z,18.92
2022-08-31T03:16:11.901Z,19.00
2022-08-31T03:18:38.698Z,19.03
2022-08-31T03:21:05.568Z,18.99
2022-08-31T03:23:32.371Z,19.12
2022-08-31T03:25:59.429Z,19.06
2022-08-31T03:28:26.209Z,18.70
2022-08-31T03:30:52.940Z,18.02
2022-08-31T03:33:19.803Z,18.17
2022-08-31T03:35:46.620Z,18.39
2022-08-31T03:38:14.184Z,18.54
2022-08-31T03:40:42.050Z,18.71
2022-08-31T03:43:11.497Z,18.36
2022-08-31T03:45:41.941Z,18.46
2022-08-31T03:48:12.560Z,18.36
2022-08-31T03:50:40.825Z,18.05
2022-08-31T03:53:08.313Z,18.39
2022-08-31T03:55:37.157Z,18.42
2022-08-31T03:58:04.846Z,18.60
2022-08-31T04:00:33.481Z,18.51
2022-08-31T04:03:01.860Z,18.53
2022-08-31T04:05:30.841Z,18.58
2022-08-31T04:07:57.783Z,18.56
2022-08-31T04:10:24.663Z,18.74
2022-08-31T04:12:51.756Z,18.74
2022-08-31T04:15:19.083Z,18.72
2022-08-31T04:17:46.915Z,18.74
2022-08-31T04:20:14.981Z,18.87
2022-08-31T04:22:42.128Z,18.73
2022-08-31T04:25:10.594Z,18.47
2022-08-31T04:27:40.729Z,18.68
2022-08-31T04:30:09.291Z,18.86
2022-08-31T04:32:36.217Z,19.39
2022-08-31T04:35:04.075Z,19.71
2022-08-31T04:37:31.203Z,20.30
2022-08-31T04:39:59.308Z,20.98
2022-08-31T04:42:26.564Z,21.60
2022-08-31T04:44:53.433Z,22.00
2022-08-31T04:47:20.532Z,22.18
2022-08-31T04:49:48.242Z,22.35
2022-08-31T04:52:15.061Z,22.37
2022-08-31T04:54:42.126Z,22.52
2022-08-31T04:57:08.797Z,23.05
2022-08-31T04:59:35.534Z,21.77
2022-08-31T05:02:04.199Z,22.03
2022-08-31T05:04:32.011Z,21.74
2022-08-31T05:06:59.119Z,22.77
2022-08-31T05:09:26.193Z,23.57
2022-08-31T05:11:56.297Z,23.87
2022-08-31T05:14:24.219Z,24.57
2022-08-31T05:16:52.100Z,25.59
2022-08-31T05:19:20.373Z,26.52
2022-08-31T05:21:47.456Z,27.46
2022-08-31T05:24:18.284Z,27.78
2022-08-31T05:26:48.420Z,27.60
2022-08-31T05:29:17.015Z,27.17
2022-08-31T05:31:47.076Z,27.21
2022-08-31T05:34:17.804Z,27.43
2022-08-31T05:36:46.362Z,28.70
2022-08-31T05:39:13.977Z,28.82
2022-08-31T05:41:42.688Z,29.10
2022-08-31T05:44:10.217Z,28.93
2022-08-31T05:46:37.478Z,28.36
2022-08-31T05:49:06.886Z,28.58
2022-08-31T05:51:37.871Z,29.02
2022-08-31T05:54:06.654Z,29.44
2022-08-31T05:56:34.649Z,29.80
2022-08-31T05:59:01.866Z,30.30
2022-08-31T06:01:38.484Z,30.51
2022-08-31T06:04:06.914Z,30.80
2022-08-31T06:06:34.383Z,30.93
2022-08-31T06:09:01.127Z,30.62
2022-08-31T06:11:29.935Z,30.76
2022-08-31T06:13:59.031Z,30.62
2022-08-31T06:16:27.220Z,31.16
2022-08-31T06:18:55.799Z,31.27
2022-08-31T06:21:25.982Z,31.32
2022-08-31T06:23:55.156Z,31.10
2022-08-31T06:26:23.833Z,31.14
2022-08-31T06:28:53.315Z,30.81
2022-08-31T06:31:26.783Z,31.45
2022-08-31T06:33:55.219Z,31.87
2022-08-31T06:36:23.884Z,31.99
2022-08-31T06:38:51.716Z,31.68
2022-08-31T06:41:24.862Z,31.67
2022-08-31T06:43:51.773Z,31.39
2022-08-31T06:46:21.024Z,32.15
2022-08-31T06:48:48.495Z,32.07
2022-08-31T06:51:15.227Z,32.21
2022-08-31T06:53:45.374Z,31.98
2022-08-31T06:56:21.332Z,32.03
2022-08-31T06:58:54.128Z,32.23
2022-08-31T07:01:35.222Z,32.86
2022-08-31T07:04:07.755Z,33.12
2022-08-31T07:06:37.055Z,32.66
2022-08-31T07:09:07.124Z,33.29
2022-08-31T07:11:36.951Z,33.46
2022-08-31T07:14:07.459Z,33.92
2022-08-31T07:16:34.406Z,34.34
2022-08-31T07:19:04.354Z,34.68
2022-08-31T07:21:34.242Z,34.70
2022-08-31T07:24:03.585Z,34.82
2022-08-31T07:26:36.491Z,34.91
2022-08-31T07:29:06.205Z,34.63
2022-08-31T07:31:44.092Z,34.85
2022-08-31T07:34:12.256Z,34.42
2022-08-31T07:36:59.662Z,34.70
2022-08-31T07:39:46.441Z,35.09
2022-08-31T07:42:18.276Z,35.09
2022-08-31T07:44:53.415Z,35.51
2022-08-31T07:47:22.529Z,35.38
2022-08-31T07:49:53.914Z,35.78
2022-08-31T07:52:24.288Z,35.79
2022-08-31T07:54:53.146Z,35.69
2022-08-31T07:57:22.106Z,36.23
2022-08-31T07:59:54.835Z,35.86
2022-08-31T08:02:23.729Z,34.93
2022-08-31T08:04:53.493Z,35.08
2022-08-31T08:07:21.457Z,35.49
2022-08-31T08:09:48.455Z,35.80
2022-08-31T08:12:15.390Z,35.69
2022-08-31T08:14:42.265Z,35.60
2022-08-31T08:17:09.410Z,35.79
2022-08-31T08:19:36.268Z,35.93
2022-08-31T08:22:03.895Z,35.31
2022-08-31T08:24:32.717Z,35.90
2022-08-31T08:27:00.148Z,35.97
2022-08-31T08:29:29.968Z,35.22
2022-08-31T08:32:00.617Z,35.66
2022-08-31T08:34:32.360Z,35.31
2022-08-31T08:36:59.837Z,35.13
2022-08-31T08:39:27.421Z,35.53
2022-08-31T08:41:58.034Z,34.67
2022-08-31T08:44:28.862Z,34.97
2022-08-31T08:46:59.062Z,35.21
2022-08-31T08:49:28.731Z,35.39
2022-08-31T08:52:12.033Z,35.14
2022-08-31T08:54:44.025Z,34.06
2022-08-31T08:57:15.947Z,34.63
2022-08-31T08:59:45.063Z,35.35
2022-08-31T09:02:15.333Z,35.89
2022-08-31T09:05:19.401Z,36.31
2022-08-31T09:08:18.250Z,36.50
2022-08-31T09:10:50.932Z,36.47
2022-08-31T09:13:31.161Z,36.63
2022-08-31T09:16:10.546Z,36.29
2022-08-31T09:18:57.777Z,35.78
2022-08-31T09:21:31.339Z,34.25
2022-08-31T09:24:03.941Z,34.89
2022-08-31T09:26:35.858Z,35.70
2022-08-31T09:29:14.106Z,35.91
2022-08-31T09:31:42.617Z,36.14
2022-08-31T09:34:25.615Z,36.53
2022-08-31T09:36:57.825Z,37.11
2022-08-31T09:39:36.886Z,37.23
2022-08-31T09:42:14.787Z,36.71
2022-08-31T09:44:43.094Z,34.70
2022-08-31T09:47:29.393Z,34.33
2022-08-31T09:49:58.207Z,34.35
2022-08-31T09:52:48.027Z,35.54
2022-08-31T09:55:24.992Z,34.14
2022-08-31T09:57:59.366Z,35.56
2022-08-31T10:00:41.508Z,35.95
2022-08-31T10:03:13.805Z,35.89
2022-08-31T10:05:43.768Z,36.35
2022-08-31T10:08:58.266Z,36.60
2022-08-31T10:11:31.026Z,36.09
2022-08-31T10:14:04.720Z,36.51
2022-08-31T10:17:00.535Z,36.53
2022-08-31T10:19:42.426Z,34.54
2022-08-31T10:22:28.316Z,35.17
2022-08-31T10:25:12.104Z,34.70
2022-08-31T10:27:45.326Z,32.54
2022-08-31T10:30:19.554Z,34.30
2022-08-31T10:33:11.922Z,35.02
2022-08-31T10:35:42.960Z,34.01
2022-08-31T10:38:26.447Z,33.85
2022-08-31T10:41:33.501Z,35.24
2022-08-31T10:44:17.212Z,34.95
2022-08-31T10:46:45.774Z,34.02
2022-08-31T10:49:12.757Z,33.99
2022-08-31T10:51:42.573Z,34.63
2022-08-31T10:54:37.362Z,35.31
2022-08-31T10:57:33.522Z,35.14
2022-08-31T11:00:09.062Z,35.46
2022-08-31T11:03:05.116Z,36.37
2022-08-31T11:05:58.292Z,37.03
2022-08-31T11:09:06.287Z,37.48
2022-08-31T11:11:42.482Z,38.27
2022-08-31T11:14:32.642Z,38.23
2022-08-31T11:17:19.396Z,38.50
2022-08-31T11:20:20.413Z,38.80
2022-08-31T11:23:06.394Z,39.18
2022-08-31T11:25:52.067Z,37.68
2022-08-31T11:28:34.794Z,37.51
2022-08-31T11:31:20.477Z,37.50
2022-08-31T11:34:14.614Z,36.63
2022-08-31T11:36:51.966Z,36.51
2022-08-31T11:39:46.201Z,35.32
2022-08-31T11:42:12.936Z,35.30
2022-08-31T11:44:39.875Z,34.05
2022-08-31T11:47:17.004Z,33.44
2022-08-31T11:49:56.249Z,35.00
2022-08-31T11:52:29.413Z,36.19
2022-08-31T11:55:00.969Z,36.79
2022-08-31T11:58:06.536Z,37.40
2022-08-31T12:00:52.761Z,37.50
2022-08-31T12:03:37.734Z,37.97
2022-08-31T12:06:08.322Z,37.90
2022-08-31T12:08:47.017Z,35.67
2022-08-31T12:11:41.096Z,35.72
2022-08-31T12:14:56.798Z,36.47
2022-08-31T12:17:26.424Z,37.14
2022-08-31T12:20:02.291Z,37.13
2022-08-31T12:23:31.142Z,37.46
2022-08-31T12:26:30.448Z,37.49
2022-08-31T12:28:57.153Z,37.64
2022-08-31T12:31:24.649Z,37.72
2022-08-31T12:34:01.840Z,37.61
2022-08-31T12:36:32.418Z,37.59
2022-08-31T12:39:34.728Z,38.17
2022-08-31T12:42:05.907Z,36.36
2022-08-31T12:44:45.069Z,36.26
2022-08-31T12:47:54.080Z,36.23
2022-08-31T12:51:07.934Z,35.90
2022-08-31T12:53:43.863Z,35.51
2022-08-31T12:56:32.605Z,35.97
2022-08-31T12:59:32.668Z,35.47
2022-08-31T13:02:12.670Z,35.60
2022-08-31T13:04:45.391Z,35.52
2022-08-31T13:07:33.377Z,36.12
2022-08-31T13:10:09.439Z,36.42
2022-08-31T13:12:36.669Z,36.41
2022-08-31T13:15:05.087Z,36.57
2022-08-31T13:17:39.652Z,36.86
2022-08-31T13:20:07.294Z,37.37
2022-08-31T13:22:42.925Z,37.82
2022-08-31T13:25:37.832Z,38.13
2022-08-31T13:28:14.437Z,38.40
2022-08-31T13:30:55.138Z,38.46
2022-08-31T13:33:27.271Z,38.39
2022-08-31T13:36:05.570Z,38.23
2022-08-31T13:38:42.534Z,37.77
2022-08-31T13:41:19.359Z,37.48
2022-08-31T13:43:52.324Z,36.71
2022-08-31T13:46:37.652Z,36.61
2022-08-31T13:49:20.922Z,36.01
2022-08-31T13:51:47.884Z,35.69
2022-08-31T13:54:27.729Z,35.85
2022-08-31T13:56:55.515Z,36.06
2022-08-31T13:59:24.882Z,35.93
2022-08-31T14:02:01.928Z,35.25
2022-08-31T14:04:44.411Z,35.02
2022-08-31T14:07:17.146Z,34.25
2022-08-31T14:09:46.152Z,34.30
2022-08-31T14:12:36.640Z,33.53
2022-08-31T14:15:20.226Z,32.31
2022-08-31T14:21:20.594Z,32.60
2022-08-31T14:24:02.822Z,32.41
2022-08-31T14:26:37.013Z,32.70
2022-08-31T14:29:11.046Z,32.04
2022-08-31T14:31:58.063Z,32.34
2022-08-31T14:34:32.378Z,33.20
2022-08-31T14:37:08.841Z,32.49
2022-08-31T14:39:36.976Z,31.88
2022-08-31T14:42:08.434Z,31.56
2022-08-31T14:44:42.396Z,31.47
2022-08-31T14:47:09.916Z,31.90
2022-08-31T14:49:37.166Z,31.72
2022-08-31T14:52:06.497Z,31.28
2022-08-31T14:54:37.488Z,31.36
2022-08-31T14:57:20.991Z,31.38
2022-08-31T14:59:47.977Z,31.44
2022-08-31T15:02:21.435Z,31.23
2022-08-31T15:04:51.701Z,31.21
2022-08-31T15:07:19.838Z,30.88
2022-08-31T15:09:50.218Z,30.51
2022-08-31T15:12:18.065Z,30.90
2022-08-31T15:14:45.302Z,31.23
2022-08-31T15:17:18.732Z,31.25
2022-08-31T15:19:46.384Z,31.39
2022-08-31T15:22:16.021Z,30.54
2022-08-31T15:24:45.024Z,30.25
2022-08-31T15:27:14.597Z,30.55
2022-08-31T15:29:43.577Z,29.78
2022-08-31T15:32:10.917Z,30.24
2022-08-31T15:34:38.717Z,29.64
2022-08-31T15:37:07.647Z,29.96
2022-08-31T15:39:37.917Z,29.58
2022-08-31T15:42:10.442Z,29.93
2022-08-31T15:44:40.716Z,29.25
2022-08-31T15:47:28.924Z,28.99
2022-08-31T15:49:57.818Z,29.45
2022-08-31T15:52:26.887Z,30.03
2022-08-31T15:54:55.230Z,28.93
2022-08-31T15:57:24.379Z,29.74
2022-08-31T15:59:52.106Z,29.66
2022-08-31T16:02:22.053Z,29.35
2022-08-31T16:04:51.457Z,29.53
2022-08-31T16:07:18.185Z,29.67
2022-08-31T16:09:46.259Z,29.96
2022-08-31T16:12:15.718Z,30.04
2022-08-31T16:14:46.759Z,29.29
2022-08-31T16:17:19.223Z,29.70
2022-08-31T16:19:47.324Z,29.73
2022-08-31T16:22:14.680Z,29.29
2022-08-31T16:24:43.434Z,29.80
2022-08-31T16:27:16.254Z,29.42
2022-08-31T16:29:44.476Z,29.39
2022-08-31T16:32:12.242Z,29.40
2022-08-31T16:34:40.087Z,29.39
2022-08-31T16:37:08.641Z,29.38
2022-08-31T16:39:37.745Z,29.06
2022-08-31T16:42:06.862Z,29.41
2022-08-31T16:44:36.612Z,29.63
2022-08-31T16:47:05.536Z,29.12
2022-08-31T16:49:41.452Z,29.60
2022-08-31T16:52:24.386Z,29.14
2022-08-31T16:54:51.936Z,28.98
2022-08-31T16:57:23.726Z,29.29
2022-08-31T16:59:51.458Z,29.07
2022-08-31T17:02:19.568Z,28.70
2022-08-31T17:04:54.744Z,28.18
2022-08-31T17:07:24.473Z,28.22
2022-08-31T17:09:56.523Z,28.12
2022-08-31T17:12:26.276Z,27.93
2022-08-31T17:14:53.340Z,27.76
2022-08-31T17:17:25.421Z,27.94
2022-08-31T17:19:54.222Z,27.77
2022-08-31T17:22:29.924Z,27.78
2022-08-31T17:25:00.783Z,27.99
2022-08-31T17:27:27.759Z,27.54
2022-08-31T17:29:56.382Z,27.43
2022-08-31T17:32:27.835Z,27.42
2022-08-31T17:34:56.349Z,27.72
2022-08-31T17:37:33.042Z,27.77
2022-08-31T17:40:00.397Z,27.95
2022-08-31T17:42:28.307Z,27.92
2022-08-31T17:44:56.773Z,28.13
2022-08-31T17:47:25.189Z,27.28
2022-08-31T17:49:52.788Z,28.02
2022-08-31T17:52:21.951Z,27.74
2022-08-31T17:54:51.367Z,28.02
2022-08-31T17:57:22.598Z,28.02
2022-08-31T17:59:49.602Z,27.66
2022-08-31T18:02:20.148Z,27.56
2022-08-31T18:04:47.805Z,27.37
2022-08-31T18:07:14.959Z,27.05
2022-08-31T18:09:45.626Z,26.68
2022-08-31T18:12:14.577Z,26.74
2022-08-31T18:14:42.071Z,26.26
2022-08-31T18:17:13.144Z,26.11
2022-08-31T18:19:40.664Z,25.44
2022-08-31T18:22:08.097Z,26.02
2022-08-31T18:24:37.754Z,25.79
2022-08-31T18:27:07.307Z,25.68
2022-08-31T18:29:36.618Z,25.37
2022-08-31T18:32:06.730Z,25.25
2022-08-31T18:34:36.922Z,25.93
2022-08-31T18:37:04.470Z,25.38
2022-08-31T18:39:52.614Z,25.56
2022-08-31T18:42:39.875Z,25.32
2022-08-31T18:45:19.567Z,25.47
2022-08-31T18:50:45.303Z,25.35
2022-08-31T18:53:15.324Z,25.41
2022-08-31T18:55:44.456Z,25.41
2022-08-31T18:58:11.505Z,25.35
2022-08-31T19:00:40.702Z,25.69
2022-08-31T19:03:08.227Z,25.27
2022-08-31T19:05:38.537Z,25.24
2022-08-31T19:08:05.578Z,25.45
2022-08-31T19:10:32.627Z,25.29
2022-08-31T19:13:00.338Z,25.07
2022-08-31T19:15:33.655Z,24.85
2022-08-31T19:18:05.620Z,25.11
2022-08-31T19:20:33.545Z,24.76
2022-08-31T19:23:00.745Z,24.76
2022-08-31T19:25:28.157Z,25.03
2022-08-31T19:27:55.918Z,24.76
2022-08-31T19:30:27.843Z,24.29
2022-08-31T19:32:56.704Z,23.99
2022-08-31T19:35:27.044Z,24.25
2022-08-31T19:37:56.588Z,24.10
2022-08-31T19:40:37.877Z,24.38
2022-08-31T19:45:54.449Z,24.23
2022-08-31T19:48:23.876Z,24.15
2022-08-31T19:50:52.548Z,24.25
2022-08-31T19:53:21.524Z,23.82
2022-08-31T19:55:51.091Z,23.42
2022-08-31T19:58:19.764Z,23.43
2022-08-31T20:00:48.537Z,23.64
2022-08-31T20:03:16.339Z,23.69
2022-08-31T20:05:43.763Z,23.03
2022-08-31T20:08:11.977Z,23.40
2022-08-31T20:10:43.480Z,23.65
2022-08-31T20:13:12.506Z,23.64
2022-08-31T20:15:41.744Z,23.63
2022-08-31T20:18:11.395Z,23.73
2022-08-31T20:20:45.495Z,23.43
2022-08-31T20:23:17.221Z,23.73
2022-08-31T20:25:46.068Z,23.56
2022-08-31T20:28:13.811Z,23.44
2022-08-31T20:30:42.701Z,23.30
2022-08-31T20:33:11.344Z,23.47
2022-08-31T20:35:47.720Z,23.34
2022-08-31T20:38:16.340Z,22.89
2022-08-31T20:40:45.252Z,22.63
2022-08-31T20:43:13.973Z,22.87
2022-08-31T20:45:42.618Z,23.19
2022-08-31T20:48:28.491Z,22.86
2022-08-31T20:50:56.347Z,22.78
2022-08-31T20:53:42.889Z,22.73
2022-08-31T20:56:17.466Z,22.47
2022-08-31T20:58:46.323Z,22.52
2022-08-31T21:01:14.313Z,22.45
2022-08-31T21:03:41.773Z,22.76
2022-08-31T21:06:13.930Z,22.21
2022-08-31T21:08:42.692Z,21.78
2022-08-31T21:11:18.250Z,21.61
2022-08-31T21:13:47.053Z,21.27
2022-08-31T21:16:14.951Z,20.72
2022-08-31T21:18:41.931Z,20.67
2022-08-31T21:21:15.414Z,20.64
2022-08-31T21:23:42.676Z,19.80
2022-08-31T21:26:15.005Z,19.91
2022-08-31T21:28:43.933Z,20.05
2022-08-31T21:31:14.017Z,20.52
2022-08-31T21:33:46.601Z,20.50
2022-08-31T21:36:15.687Z,19.91
2022-08-31T21:38:43.753Z,20.30
2022-08-31T21:41:13.253Z,20.81
2022-08-31T21:43:40.788Z,21.06
2022-08-31T21:46:10.432Z,20.33
2022-08-31T21:48:39.011Z,20.51
2022-08-31T21:51:22.430Z,20.24
2022-08-31T21:53:51.908Z,20.47
2022-08-31T21:56:20.481Z,20.03
2022-08-31T21:58:48.000Z,20.01
2022-08-31T22:01:18.650Z,18.97
2022-08-31T22:03:47.516Z,19.27
2022-08-31T22:06:26.906Z,19.09
2022-08-31T22:08:55.321Z,18.89
2022-08-31T22:11:24.549Z,19.38
2022-08-31T22:13:55.132Z,19.99
2022-08-31T22:16:22.047Z,19.47
2022-08-31T22:19:07.278Z,19.66
2022-08-31T22:21:35.456Z,19.78
2022-08-31T22:24:06.601Z,19.43
2022-08-31T22:26:39.109Z,19.26
2022-08-31T22:29:07.225Z,18.92
2022-08-31T22:31:39.061Z,18.84
2022-08-31T22:34:07.854Z,19.20
2022-08-31T22:36:35.396Z,18.91
2022-08-31T22:39:06.520Z,18.88
2022-08-31T22:41:37.475Z,18.49
2022-08-31T22:44:06.546Z,19.17
2022-08-31T22:46:34.667Z,19.61
2022-08-31T22:49:02.189Z,19.84
2022-08-31T22:51:29.223Z,20.04
2022-08-31T22:53:56.021Z,19.96
2022-08-31T22:56:28.610Z,20.19
2022-08-31T22:59:00.177Z,19.45
2022-08-31T23:01:34.197Z,19.42
2022-08-31T23:04:06.876Z,20.11
2022-08-31T23:06:36.130Z,19.10
2022-08-31T23:09:05.958Z,18.88
2022-08-31T23:11:32.787Z,18.95
2022-08-31T23:14:01.906Z,19.10
2022-08-31T23:16:38.085Z,19.18
2022-08-31T23:19:12.524Z,19.42
2022-08-31T23:21:52.977Z,19.44
2022-08-31T23:24:29.100Z,19.46
2022-08-31T23:27:01.638Z,19.19
2022-08-31T23:29:31.199Z,19.42
2022-08-31T23:31:59.680Z,19.62
2022-08-31T23:34:26.541Z,19.78
2022-08-31T23:36:54.154Z,20.09
2022-08-31T23:39:23.916Z,19.94
2022-08-31T23:41:51.159Z,19.89
2022-08-31T23:44:20.729Z,19.44
2022-08-31T23:46:48.134Z,19.04
2022-08-31T23:49:18.455Z,18.61
2022-08-31T23:51:45.634Z,18.27
2022-08-31T23:54:14.151Z,18.80
2022-08-31T23:56:43.149Z,18.43
2022-08-31T23:59:19.013Z,18.34
